createdAt,value
2018-07-26T00:00:24.210Z,25.12
2018-07-26T00:01:24.219Z,25.14
2018-07-26T00:02:24.210Z,25.17
2018-07-26T00:03:24.209Z,25.14
2018-07-26T00:04:24.214Z,25.05
2018-07-26T00:05:24.219Z,25.08
2018-07-26T00:06:24.219Z,25.02
2018-07-26T00:07:24.217Z,24.99
2018-07-26T00:08:24.219Z,24.98
2018-07-26T00:09:24.224Z,24.97
2018-07-26T00:10:24.225Z,24.97
2018-07-26T00:11:24.230Z,24.86
2018-07-26T00:12:24.232Z,24.79
2018-07-26T00:13:24.235Z,24.75
2018-07-26T00:14:24.236Z,24.59
2018-07-26T00:15:24.233Z,24.53
2018-07-26T00:16:24.237Z,24.51
2018-07-26T00:17:24.240Z,24.42
2018-07-26T00:18:24.239Z,24.42
2018-07-26T00:19:24.247Z,24.41
2018-07-26T00:20:24.249Z,24.39
2018-07-26T00:21:24.249Z,24.36
2018-07-26T00:22:24.396Z,24.34
2018-07-26T00:23:24.254Z,24.26
2018-07-26T00:24:24.257Z,24.23
2018-07-26T00:25:24.259Z,24.18
2018-07-26T00:26:24.258Z,24.18
2018-07-26T00:27:24.258Z,24.16
2018-07-26T00:28:24.258Z,24.14
2018-07-26T00:29:24.261Z,24.05
2018-07-26T00:30:24.263Z,24.08
2018-07-26T00:31:24.269Z,24.06
2018-07-26T00:32:24.271Z,23.99
2018-07-26T00:33:24.274Z,23.94
2018-07-26T00:34:24.276Z,24.08
2018-07-26T00:35:24.271Z,23.87
2018-07-26T00:36:24.273Z,23.92
2018-07-26T00:37:24.281Z,23.92
2018-07-26T00:38:24.283Z,23.90
2018-07-26T00:39:24.280Z,23.94
2018-07-26T00:40:24.281Z,23.94
2018-07-26T00:41:24.310Z,23.93
2018-07-26T00:42:24.283Z,23.94
2018-07-26T00:43:24.289Z,23.97
2018-07-26T00:44:24.291Z,23.90
2018-07-26T00:45:24.295Z,23.99
2018-07-26T00:46:24.294Z,23.90
2018-07-26T00:47:24.291Z,23.92
2018-07-26T00:48:24.294Z,23.92
2018-07-26T00:49:24.298Z,23.94
2018-07-26T00:50:24.296Z,23.94
2018-07-26T00:51:24.303Z,23.87
2018-07-26T00:52:24.306Z,23.81
2018-07-26T00:53:24.301Z,23.81
2018-07-26T00:54:24.305Z,23.81
2018-07-26T00:55:24.309Z,23.75
2018-07-26T00:56:24.312Z,23.81
2018-07-26T00:57:24.311Z,23.68
2018-07-26T00:58:24.312Z,23.74
2018-07-26T00:59:24.310Z,23.69
2018-07-26T01:00:24.314Z,23.69
2018-07-26T01:01:24.315Z,23.69
2018-07-26T01:02:24.315Z,23.74
2018-07-26T01:03:24.322Z,23.71
2018-07-26T01:04:24.327Z,23.74
2018-07-26T01:05:24.325Z,23.77
2018-07-26T01:06:24.324Z,23.78
2018-07-26T01:07:24.322Z,23.74
2018-07-26T01:08:24.324Z,23.74
2018-07-26T01:09:24.331Z,23.75
2018-07-26T01:10:24.331Z,23.74
2018-07-26T01:11:24.328Z,23.68
2018-07-26T01:12:24.329Z,23.74
2018-07-26T01:13:24.331Z,23.81
2018-07-26T01:14:24.333Z,23.78
2018-07-26T01:15:24.340Z,23.78
2018-07-26T01:16:24.340Z,23.78
2018-07-26T01:17:24.343Z,23.82
2018-07-26T01:18:24.343Z,23.86
2018-07-26T01:19:24.340Z,23.90
2018-07-26T01:20:24.342Z,23.87
2018-07-26T01:21:24.376Z,23.82
2018-07-26T01:22:24.343Z,23.89
2018-07-26T01:23:24.349Z,23.89
2018-07-26T01:24:24.350Z,23.90
2018-07-26T01:25:24.349Z,23.90
2018-07-26T01:26:24.348Z,23.82
2018-07-26T01:27:24.354Z,23.86
2018-07-26T01:28:24.356Z,23.77
2018-07-26T01:29:24.358Z,23.74
2018-07-26T01:30:24.364Z,23.69
2018-07-26T01:31:24.357Z,23.69
2018-07-26T01:32:24.357Z,23.69
2018-07-26T01:33:24.360Z,23.68
2018-07-26T01:34:24.362Z,23.54
2018-07-26T01:35:24.366Z,23.60
2018-07-26T01:36:24.368Z,23.54
2018-07-26T01:37:24.369Z,23.49
2018-07-26T01:38:24.369Z,23.50
2018-07-26T01:39:24.366Z,23.63
2018-07-26T01:40:24.369Z,23.42
2018-07-26T01:41:24.374Z,23.47
2018-07-26T01:42:24.375Z,23.53
2018-07-26T01:43:24.372Z,23.38
2018-07-26T01:44:24.374Z,23.42
2018-07-26T01:45:24.375Z,23.42
2018-07-26T01:46:24.375Z,23.41
2018-07-26T01:47:24.383Z,23.39
2018-07-26T01:48:24.383Z,23.31
2018-07-26T01:49:24.386Z,23.25
2018-07-26T01:50:24.386Z,23.26
2018-07-26T01:51:24.382Z,23.29
2018-07-26T01:52:24.386Z,23.23
2018-07-26T01:53:24.386Z,23.21
2018-07-26T01:54:24.385Z,23.21
2018-07-26T01:55:24.391Z,23.21
2018-07-26T01:56:24.394Z,23.15
2018-07-26T01:57:24.390Z,23.19
2018-07-26T01:58:24.390Z,23.18
2018-07-26T01:59:24.397Z,23.16
2018-07-26T02:00:24.400Z,23.09
2018-07-26T02:01:24.403Z,23.09
2018-07-26T02:02:24.403Z,23.06
2018-07-26T02:03:24.398Z,23.07
2018-07-26T02:04:24.399Z,23.03
2018-07-26T02:05:24.400Z,22.93
2018-07-26T02:06:24.400Z,22.96
2018-07-26T02:07:24.405Z,22.94
2018-07-26T02:08:24.407Z,22.99
2018-07-26T02:09:24.410Z,22.99
2018-07-26T02:10:24.410Z,22.94
2018-07-26T02:11:24.407Z,22.96
2018-07-26T02:12:24.409Z,22.94
2018-07-26T02:13:24.414Z,22.94
2018-07-26T02:14:24.413Z,22.86
2018-07-26T02:15:24.410Z,22.82
2018-07-26T02:16:24.413Z,22.85
2018-07-26T02:17:24.414Z,22.88
2018-07-26T02:18:24.416Z,22.89
2018-07-26T02:19:24.419Z,22.79
2018-07-26T02:20:24.421Z,22.81
2018-07-26T02:21:24.422Z,22.79
2018-07-26T02:22:24.422Z,22.78
2018-07-26T02:23:24.419Z,22.82
2018-07-26T02:24:24.424Z,22.82
2018-07-26T02:25:24.423Z,22.82
2018-07-26T02:26:24.422Z,22.85
2018-07-26T02:27:24.430Z,22.79
2018-07-26T02:28:24.430Z,22.84
2018-07-26T02:29:24.425Z,22.76
2018-07-26T02:30:24.427Z,22.72
2018-07-26T02:31:24.433Z,22.74
2018-07-26T02:32:24.434Z,22.64
2018-07-26T02:33:24.434Z,22.64
2018-07-26T02:34:24.435Z,22.66
2018-07-26T02:35:24.437Z,22.64
2018-07-26T02:36:24.433Z,22.67
2018-07-26T02:37:24.434Z,22.63
2018-07-26T02:38:24.433Z,22.60
2018-07-26T02:39:24.446Z,22.66
2018-07-26T02:40:24.440Z,22.61
2018-07-26T02:41:24.443Z,22.49
2018-07-26T02:42:24.442Z,22.46
2018-07-26T02:43:24.440Z,22.59
2018-07-26T02:44:24.439Z,22.45
2018-07-26T02:45:24.446Z,22.44
2018-07-26T02:46:24.461Z,22.49
2018-07-26T02:47:24.441Z,22.44
2018-07-26T02:48:24.444Z,22.46
2018-07-26T02:49:24.447Z,22.45
2018-07-26T02:50:24.447Z,22.46
2018-07-26T02:51:24.450Z,22.41
2018-07-26T02:52:24.450Z,22.49
2018-07-26T02:53:24.451Z,22.56
2018-07-26T02:54:24.451Z,22.46
2018-07-26T02:55:24.448Z,22.44
2018-07-26T02:56:24.449Z,22.51
2018-07-26T02:57:24.453Z,22.48
2018-07-26T02:58:24.449Z,22.48
2018-07-26T02:59:24.459Z,22.38
2018-07-26T03:00:24.458Z,22.41
2018-07-26T03:01:24.453Z,22.29
2018-07-26T03:02:24.453Z,22.36
2018-07-26T03:03:24.460Z,22.23
2018-07-26T03:04:24.462Z,22.19
2018-07-26T03:05:24.462Z,22.15
2018-07-26T03:06:24.469Z,22.19
2018-07-26T03:07:24.458Z,22.04
2018-07-26T03:08:24.458Z,22.17
2018-07-26T03:09:24.460Z,22.08
2018-07-26T03:10:24.472Z,22.09
2018-07-26T03:11:24.470Z,22.11
2018-07-26T03:12:24.467Z,22.17
2018-07-26T03:13:24.468Z,22.08
2018-07-26T03:14:24.466Z,22.09
2018-07-26T03:15:24.463Z,22.12
2018-07-26T03:16:24.465Z,22.08
2018-07-26T03:17:24.470Z,22.04
2018-07-26T03:18:24.470Z,22.08
2018-07-26T03:19:24.466Z,22.12
2018-07-26T03:20:24.468Z,22.12
2018-07-26T03:21:24.472Z,22.14
2018-07-26T03:22:24.469Z,22.19
2018-07-26T03:23:24.474Z,22.04
2018-07-26T03:24:24.475Z,22.09
2018-07-26T03:25:24.477Z,22.09
2018-07-26T03:26:24.476Z,22.06
2018-07-26T03:27:24.473Z,22.11
2018-07-26T03:28:24.473Z,22.06
2018-07-26T03:29:24.473Z,22.05
2018-07-26T03:30:24.473Z,22.05
2018-07-26T03:31:24.478Z,22.08
2018-07-26T03:32:24.478Z,22.01
2018-07-26T03:33:24.475Z,22.05
2018-07-26T03:34:24.479Z,21.99
2018-07-26T03:35:24.482Z,22.04
2018-07-26T03:36:24.480Z,22.08
2018-07-26T03:37:24.483Z,22.08
2018-07-26T03:38:24.483Z,22.02
2018-07-26T03:39:24.479Z,21.99
2018-07-26T03:40:24.479Z,22.04
2018-07-26T03:41:24.481Z,22.04
2018-07-26T03:42:24.484Z,22.02
2018-07-26T03:43:24.487Z,22.06
2018-07-26T03:44:24.490Z,22.09
2018-07-26T03:45:24.486Z,22.09
2018-07-26T03:46:24.487Z,22.05
2018-07-26T03:47:24.485Z,22.05
2018-07-26T03:48:24.483Z,22.05
2018-07-26T03:49:24.489Z,22.08
2018-07-26T03:50:24.489Z,22.08
2018-07-26T03:51:24.534Z,21.99
2018-07-26T03:52:24.486Z,22.01
2018-07-26T03:53:24.486Z,21.96
2018-07-26T03:54:24.487Z,21.93
2018-07-26T03:55:24.492Z,21.94
2018-07-26T03:56:24.492Z,22.02
2018-07-26T03:57:24.492Z,21.98
2018-07-26T03:58:24.496Z,22.09
2018-07-26T03:59:24.488Z,22.05
2018-07-26T04:00:24.490Z,22.04
2018-07-26T04:01:24.489Z,22.12
2018-07-26T04:02:24.489Z,22.04
2018-07-26T04:03:24.538Z,22.02
2018-07-26T04:04:24.495Z,22.08
2018-07-26T04:05:24.496Z,22.08
2018-07-26T04:06:24.491Z,22.08
2018-07-26T04:07:24.497Z,22.05
2018-07-26T04:08:24.496Z,22.06
2018-07-26T04:09:24.498Z,22.08
2018-07-26T04:10:24.499Z,22.17
2018-07-26T04:11:24.495Z,22.15
2018-07-26T04:12:24.499Z,22.11
2018-07-26T04:13:24.503Z,22.15
2018-07-26T04:14:24.500Z,22.14
2018-07-26T04:15:24.496Z,22.14
2018-07-26T04:16:24.497Z,22.12
2018-07-26T04:17:24.497Z,22.17
2018-07-26T04:18:24.498Z,22.17
2018-07-26T04:19:24.504Z,22.19
2018-07-26T04:20:24.505Z,22.14
2018-07-26T04:21:24.500Z,22.21
2018-07-26T04:22:24.500Z,22.19
2018-07-26T04:23:24.506Z,22.23
2018-07-26T04:24:24.507Z,22.31
2018-07-26T04:25:24.507Z,22.26
2018-07-26T04:26:24.509Z,22.30
2018-07-26T04:27:24.504Z,22.33
2018-07-26T04:28:24.504Z,22.38
2018-07-26T04:29:24.504Z,22.42
2018-07-26T04:30:24.504Z,22.39
2018-07-26T04:31:24.509Z,22.42
2018-07-26T04:32:24.513Z,22.51
2018-07-26T04:33:24.511Z,22.51
2018-07-26T04:34:24.512Z,22.44
2018-07-26T04:35:24.508Z,22.59
2018-07-26T04:36:24.508Z,22.61
2018-07-26T04:37:24.515Z,22.63
2018-07-26T04:38:24.514Z,22.60
2018-07-26T04:39:24.511Z,22.66
2018-07-26T04:40:24.512Z,22.70
2018-07-26T04:41:24.511Z,22.75
2018-07-26T04:42:24.512Z,22.86
2018-07-26T04:43:24.516Z,22.85
2018-07-26T04:44:24.519Z,22.97
2018-07-26T04:45:24.519Z,22.94
2018-07-26T04:46:24.519Z,23.03
2018-07-26T04:47:24.516Z,23.06
2018-07-26T04:48:24.517Z,23.14
2018-07-26T04:49:24.518Z,23.19
2018-07-26T04:50:24.518Z,23.26
2018-07-26T04:51:24.525Z,23.37
2018-07-26T04:52:24.526Z,23.34
2018-07-26T04:53:24.522Z,23.59
2018-07-26T04:54:24.522Z,23.71
2018-07-26T04:55:24.533Z,23.90
2018-07-26T04:56:24.531Z,24.04
2018-07-26T04:57:24.531Z,24.18
2018-07-26T04:58:24.531Z,24.41
2018-07-26T04:59:24.530Z,24.52
2018-07-26T05:00:24.531Z,24.71
2018-07-26T05:01:24.533Z,24.93
2018-07-26T05:02:24.534Z,25.05
2018-07-26T05:03:24.540Z,25.26
2018-07-26T05:04:24.544Z,25.46
2018-07-26T05:05:24.563Z,25.61
2018-07-26T05:06:24.547Z,25.82
2018-07-26T05:07:24.546Z,26.12
2018-07-26T05:08:24.548Z,26.34
2018-07-26T05:09:24.556Z,26.66
2018-07-26T05:10:24.557Z,26.83
2018-07-26T05:11:24.556Z,27.05
2018-07-26T05:12:24.558Z,27.42
2018-07-26T05:13:24.563Z,27.74
2018-07-26T05:14:24.566Z,27.95
2018-07-26T05:15:24.580Z,28.25
2018-07-26T05:16:24.575Z,28.50
2018-07-26T05:17:24.581Z,28.76
2018-07-26T05:18:24.594Z,28.91
2018-07-26T05:19:24.582Z,29.10
2018-07-26T05:20:24.586Z,29.30
2018-07-26T05:21:24.593Z,29.48
2018-07-26T05:22:24.593Z,29.73
2018-07-26T05:23:24.602Z,29.88
2018-07-26T05:24:24.608Z,30.13
2018-07-26T05:25:24.614Z,30.34
2018-07-26T05:26:24.612Z,30.46
2018-07-26T05:27:24.621Z,30.67
2018-07-26T05:28:24.626Z,30.79
2018-07-26T05:29:24.634Z,30.85
2018-07-26T05:30:24.650Z,31.03
2018-07-26T05:31:24.635Z,31.20
2018-07-26T05:32:24.641Z,31.23
2018-07-26T05:33:24.647Z,31.56
2018-07-26T05:34:24.652Z,31.68
2018-07-26T05:35:24.663Z,31.94
2018-07-26T05:36:24.667Z,32.09
2018-07-26T05:37:24.686Z,31.76
2018-07-26T05:38:24.678Z,31.74
2018-07-26T05:39:24.680Z,31.65
2018-07-26T05:40:24.685Z,31.57
2018-07-26T05:41:24.695Z,31.72
2018-07-26T05:42:24.700Z,32.07
2018-07-26T05:43:24.702Z,32.43
2018-07-26T05:44:24.708Z,32.80
2018-07-26T05:45:24.714Z,33.11
2018-07-26T05:46:24.719Z,33.26
2018-07-26T05:47:24.733Z,33.55
2018-07-26T05:48:24.737Z,33.70
2018-07-26T05:49:24.743Z,33.62
2018-07-26T05:50:24.749Z,33.29
2018-07-26T05:51:24.750Z,32.99
2018-07-26T05:52:24.757Z,32.81
2018-07-26T05:53:24.912Z,32.66
2018-07-26T05:54:24.775Z,32.53
2018-07-26T05:55:24.781Z,32.29
2018-07-26T05:56:24.788Z,32.21
2018-07-26T05:57:24.789Z,32.10
2018-07-26T05:58:24.795Z,32.09
2018-07-26T05:59:24.807Z,32.09
2018-07-26T06:00:24.813Z,32.17
2018-07-26T06:01:24.821Z,32.12
2018-07-26T06:02:24.829Z,32.09
2018-07-26T06:03:24.831Z,31.95
2018-07-26T06:04:24.834Z,31.95
2018-07-26T06:05:24.842Z,31.87
2018-07-26T06:06:24.847Z,31.88
2018-07-26T06:07:24.858Z,31.92
2018-07-26T06:08:24.864Z,31.92
2018-07-26T06:09:24.870Z,32.05
2018-07-26T06:10:24.878Z,32.19
2018-07-26T06:11:24.877Z,32.32
2018-07-26T06:12:24.884Z,32.25
2018-07-26T06:13:24.894Z,32.27
2018-07-26T06:14:24.900Z,32.19
2018-07-26T06:15:24.902Z,32.25
2018-07-26T06:16:24.911Z,32.22
2018-07-26T06:17:24.917Z,32.25
2018-07-26T06:18:24.938Z,32.21
2018-07-26T06:19:24.934Z,32.12
2018-07-26T06:20:24.941Z,32.35
2018-07-26T06:21:24.945Z,32.59
2018-07-26T06:22:24.955Z,32.62
2018-07-26T06:23:24.953Z,33.02
2018-07-26T06:24:24.959Z,33.86
2018-07-26T06:25:24.967Z,34.36
2018-07-26T06:26:24.973Z,34.18
2018-07-26T06:27:24.989Z,34.12
2018-07-26T06:28:24.995Z,34.50
2018-07-26T06:29:24.994Z,34.94
2018-07-26T06:30:25.000Z,34.63
2018-07-26T06:31:25.016Z,34.38
2018-07-26T06:32:25.021Z,34.27
2018-07-26T06:33:25.101Z,34.16
2018-07-26T06:34:25.036Z,34.21
2018-07-26T06:35:25.039Z,34.36
2018-07-26T06:36:25.045Z,34.34
2018-07-26T06:37:25.054Z,34.48
2018-07-26T06:38:25.061Z,34.52
2018-07-26T06:39:25.137Z,34.52
2018-07-26T06:40:25.080Z,34.50
2018-07-26T06:41:25.089Z,34.40
2018-07-26T06:42:25.096Z,34.38
2018-07-26T06:43:25.098Z,34.46
2018-07-26T06:44:25.106Z,34.34
2018-07-26T06:45:25.119Z,34.33
2018-07-26T06:46:25.127Z,34.30
2018-07-26T06:47:25.129Z,34.30
2018-07-26T06:48:25.136Z,34.11
2018-07-26T06:49:25.144Z,34.12
2018-07-26T06:50:25.151Z,34.03
2018-07-26T06:51:25.164Z,33.97
2018-07-26T06:52:25.172Z,33.93
2018-07-26T06:53:25.180Z,33.90
2018-07-26T06:54:25.186Z,33.87
2018-07-26T06:55:25.190Z,33.79
2018-07-26T06:56:25.197Z,33.74
2018-07-26T06:57:25.206Z,33.71
2018-07-26T06:58:25.213Z,33.70
2018-07-26T06:59:25.225Z,33.75
2018-07-26T07:00:25.232Z,33.82
2018-07-26T07:01:25.236Z,33.90
2018-07-26T07:02:25.241Z,33.77
2018-07-26T07:03:25.255Z,33.86
2018-07-26T07:04:25.262Z,33.72
2018-07-26T07:05:25.269Z,33.81
2018-07-26T07:06:25.275Z,33.84
2018-07-26T07:07:25.278Z,33.87
2018-07-26T07:08:25.289Z,33.97
2018-07-26T07:09:25.295Z,34.03
2018-07-26T07:10:25.303Z,34.14
2018-07-26T07:11:25.313Z,34.16
2018-07-26T07:12:25.319Z,34.30
2018-07-26T07:13:25.328Z,34.43
2018-07-26T07:14:25.335Z,34.65
2018-07-26T07:15:25.337Z,34.99
2018-07-26T07:16:25.346Z,35.13
2018-07-26T07:17:25.357Z,35.17
2018-07-26T07:18:25.365Z,35.42
2018-07-26T07:19:25.371Z,35.76
2018-07-26T07:20:25.420Z,35.98
2018-07-26T07:21:25.384Z,36.23
2018-07-26T07:22:25.392Z,36.40
2018-07-26T07:23:25.405Z,36.41
2018-07-26T07:24:25.415Z,36.41
2018-07-26T07:25:25.423Z,36.38
2018-07-26T07:26:25.432Z,36.57
2018-07-26T07:27:25.435Z,36.67
2018-07-26T07:28:25.450Z,36.74
2018-07-26T07:29:25.476Z,36.46
2018-07-26T07:30:25.465Z,36.60
2018-07-26T07:31:25.478Z,36.60
2018-07-26T07:32:25.489Z,36.62
2018-07-26T07:33:25.494Z,36.79
2018-07-26T07:34:25.506Z,36.71
2018-07-26T07:35:25.535Z,36.91
2018-07-26T07:36:25.535Z,37.04
2018-07-26T07:37:25.540Z,37.27
2018-07-26T07:38:25.550Z,37.40
2018-07-26T07:39:25.555Z,37.60
2018-07-26T07:40:25.565Z,37.66
2018-07-26T07:41:25.595Z,38.21
2018-07-26T07:42:25.587Z,38.50
2018-07-26T07:43:25.603Z,38.68
2018-07-26T07:44:25.614Z,38.33
2018-07-26T07:45:25.625Z,38.30
2018-07-26T07:46:25.636Z,38.18
2018-07-26T07:47:25.713Z,38.43
2018-07-26T07:48:25.655Z,38.89
2018-07-26T07:49:25.672Z,39.46
2018-07-26T07:50:25.682Z,40.39
2018-07-26T07:51:25.690Z,41.28
2018-07-26T07:52:25.702Z,41.97
2018-07-26T07:53:25.717Z,42.65
2018-07-26T07:54:25.728Z,43.38
2018-07-26T07:55:25.747Z,44.12
2018-07-26T07:56:25.761Z,44.35
2018-07-26T07:57:25.775Z,44.78
2018-07-26T07:58:25.787Z,45.17
2018-07-26T07:59:25.876Z,45.16
2018-07-26T08:00:25.813Z,45.05
2018-07-26T08:01:25.828Z,45.23
2018-07-26T08:02:25.844Z,45.56
2018-07-26T08:03:25.864Z,45.98
2018-07-26T08:04:25.883Z,46.10
2018-07-26T08:05:25.956Z,45.82
2018-07-26T08:06:25.908Z,45.91
2018-07-26T08:07:25.929Z,46.50
2018-07-26T08:08:25.948Z,46.02
2018-07-26T08:09:25.965Z,46.62
2018-07-26T08:10:25.981Z,47.18
2018-07-26T08:11:25.997Z,47.63
2018-07-26T08:12:26.012Z,47.95
2018-07-26T08:13:26.031Z,48.65
2018-07-26T08:14:26.047Z,48.67
2018-07-26T08:15:26.071Z,48.48
2018-07-26T08:16:26.088Z,47.98
2018-07-26T08:17:26.107Z,47.54
2018-07-26T08:18:26.126Z,47.22
2018-07-26T08:19:26.139Z,47.50
2018-07-26T08:20:26.159Z,47.78
2018-07-26T08:21:26.249Z,48.02
2018-07-26T08:22:26.199Z,48.12
2018-07-26T08:23:26.216Z,48.21
2018-07-26T08:24:26.237Z,48.19
2018-07-26T08:25:26.254Z,48.58
2018-07-26T08:26:26.272Z,48.70
2018-07-26T08:27:26.295Z,48.79
2018-07-26T08:28:26.319Z,49.01
2018-07-26T08:29:26.405Z,48.88
2018-07-26T08:30:26.353Z,49.08
2018-07-26T08:31:26.371Z,48.85
2018-07-26T08:32:26.391Z,48.99
2018-07-26T08:33:26.408Z,49.31
2018-07-26T08:34:26.426Z,49.47
2018-07-26T08:35:26.451Z,49.81
2018-07-26T08:36:26.471Z,50.00
2018-07-26T08:37:26.487Z,50.42
2018-07-26T08:38:26.507Z,50.43
2018-07-26T08:39:26.540Z,50.60
2018-07-26T08:40:26.554Z,50.36
2018-07-26T08:41:26.574Z,49.90
2018-07-26T08:42:26.594Z,49.73
2018-07-26T08:43:26.610Z,49.73
2018-07-26T08:44:26.637Z,49.99
2018-07-26T08:45:26.653Z,50.04
2018-07-26T08:46:26.672Z,50.25
2018-07-26T08:47:26.698Z,50.31
2018-07-26T08:48:26.721Z,49.77
2018-07-26T08:49:26.741Z,48.63
2018-07-26T08:50:26.760Z,47.94
2018-07-26T08:51:26.779Z,48.01
2018-07-26T08:52:26.799Z,48.47
2018-07-26T08:53:26.826Z,48.72
2018-07-26T08:54:26.850Z,48.79
2018-07-26T08:55:26.863Z,49.08
2018-07-26T08:56:26.887Z,48.85
2018-07-26T08:57:26.912Z,48.44
2018-07-26T08:58:26.928Z,48.47
2018-07-26T08:59:26.955Z,45.73
2018-07-26T09:00:26.976Z,46.58
2018-07-26T09:01:27.004Z,46.10
2018-07-26T09:02:27.020Z,45.56
2018-07-26T09:03:27.036Z,44.51
2018-07-26T09:04:27.062Z,45.51
2018-07-26T09:05:27.080Z,45.73
2018-07-26T09:06:27.100Z,45.85
2018-07-26T09:07:27.127Z,46.19
2018-07-26T09:08:27.148Z,46.80
2018-07-26T09:09:27.166Z,46.89
2018-07-26T09:10:27.191Z,46.21
2018-07-26T09:11:27.250Z,46.18
2018-07-26T09:12:27.234Z,46.40
2018-07-26T09:13:27.299Z,46.62
2018-07-26T09:14:27.278Z,46.61
2018-07-26T09:15:27.295Z,46.31
2018-07-26T09:16:27.316Z,46.55
2018-07-26T09:17:27.339Z,46.67
2018-07-26T09:18:27.358Z,46.83
2018-07-26T09:19:27.387Z,47.28
2018-07-26T09:20:27.406Z,46.79
2018-07-26T09:21:27.428Z,46.94
2018-07-26T09:22:27.448Z,47.29
2018-07-26T09:23:27.467Z,47.20
2018-07-26T09:24:27.508Z,46.50
2018-07-26T09:25:27.519Z,46.17
2018-07-26T09:26:27.534Z,46.82
2018-07-26T09:27:27.551Z,47.01
2018-07-26T09:28:27.574Z,46.10
2018-07-26T09:29:27.595Z,46.70
2018-07-26T09:30:27.618Z,46.99
2018-07-26T09:31:27.644Z,47.71
2018-07-26T09:32:27.666Z,48.25
2018-07-26T09:33:27.687Z,46.82
2018-07-26T09:34:27.707Z,46.10
2018-07-26T09:35:27.762Z,46.55
2018-07-26T09:36:27.748Z,46.84
2018-07-26T09:37:27.770Z,46.79
2018-07-26T09:38:27.792Z,47.27
2018-07-26T09:39:27.819Z,47.53
2018-07-26T09:40:27.845Z,47.83
2018-07-26T09:41:27.859Z,47.24
2018-07-26T09:42:27.883Z,47.83
2018-07-26T09:43:27.908Z,48.23
2018-07-26T09:44:27.929Z,48.29
2018-07-26T09:45:27.952Z,47.74
2018-07-26T09:46:27.974Z,47.69
2018-07-26T09:47:28.063Z,47.78
2018-07-26T09:48:28.026Z,47.20
2018-07-26T09:49:28.073Z,47.08
2018-07-26T09:50:28.062Z,46.01
2018-07-26T09:51:28.087Z,45.54
2018-07-26T09:52:28.111Z,45.48
2018-07-26T09:53:28.134Z,45.85
2018-07-26T09:54:28.154Z,46.19
2018-07-26T09:55:28.172Z,46.30
2018-07-26T09:56:28.196Z,45.99
2018-07-26T09:57:28.223Z,45.80
2018-07-26T09:58:28.243Z,45.82
2018-07-26T09:59:28.261Z,45.73
2018-07-26T10:00:28.405Z,46.38
2018-07-26T10:01:28.305Z,46.34
2018-07-26T10:02:28.334Z,47.01
2018-07-26T10:03:28.354Z,47.15
2018-07-26T10:04:28.376Z,46.02
2018-07-26T10:05:28.399Z,45.98
2018-07-26T10:06:28.420Z,46.02
2018-07-26T10:07:28.441Z,45.83
2018-07-26T10:08:28.463Z,46.18
2018-07-26T10:09:28.484Z,46.10
2018-07-26T10:10:28.507Z,45.45
2018-07-26T10:11:28.533Z,45.60
2018-07-26T10:12:28.556Z,46.11
2018-07-26T10:13:28.573Z,46.10
2018-07-26T10:14:28.595Z,46.60
2018-07-26T10:15:28.623Z,46.96
2018-07-26T10:16:28.645Z,46.55
2018-07-26T10:17:28.667Z,45.80
2018-07-26T10:18:28.688Z,46.29
2018-07-26T10:19:28.706Z,45.57
2018-07-26T10:20:28.733Z,45.83
2018-07-26T10:21:28.751Z,46.18
2018-07-26T10:22:28.774Z,45.99
2018-07-26T10:23:28.802Z,46.24
2018-07-26T10:24:28.823Z,46.71
2018-07-26T10:25:28.847Z,46.82
2018-07-26T10:26:28.870Z,46.53
2018-07-26T10:27:28.887Z,47.24
2018-07-26T10:28:28.912Z,47.79
2018-07-26T10:29:28.937Z,47.50
2018-07-26T10:30:28.960Z,47.76
2018-07-26T10:31:28.976Z,47.29
2018-07-26T10:32:29.000Z,47.27
2018-07-26T10:33:29.022Z,46.58
2018-07-26T10:34:29.045Z,47.01
2018-07-26T10:35:29.072Z,47.28
2018-07-26T10:36:29.095Z,47.15
2018-07-26T10:37:29.118Z,46.90
2018-07-26T10:38:29.139Z,47.25
2018-07-26T10:39:29.161Z,47.46
2018-07-26T10:40:29.181Z,47.91
2018-07-26T10:41:29.203Z,48.10
2018-07-26T10:42:29.224Z,47.93
2018-07-26T10:43:29.251Z,48.13
2018-07-26T10:44:29.278Z,48.17
2018-07-26T10:45:29.294Z,48.13
2018-07-26T10:46:29.333Z,48.47
2018-07-26T10:47:29.342Z,48.51
2018-07-26T10:48:29.365Z,47.90
2018-07-26T10:49:29.388Z,46.96
2018-07-26T10:50:29.414Z,46.87
2018-07-26T10:51:29.430Z,46.68
2018-07-26T10:52:29.454Z,46.93
2018-07-26T10:53:29.475Z,46.53
2018-07-26T10:54:29.496Z,47.06
2018-07-26T10:55:29.524Z,45.98
2018-07-26T10:56:29.548Z,45.42
2018-07-26T10:57:29.568Z,44.78
2018-07-26T10:58:29.589Z,44.02
2018-07-26T10:59:29.607Z,42.95
2018-07-26T11:00:29.636Z,42.68
2018-07-26T11:01:29.659Z,42.34
2018-07-26T11:02:29.677Z,43.25
2018-07-26T11:03:29.698Z,43.79
2018-07-26T11:04:29.717Z,43.44
2018-07-26T11:05:29.740Z,43.78
2018-07-26T11:06:29.761Z,44.50
2018-07-26T11:07:29.787Z,45.07
2018-07-26T11:08:29.808Z,45.82
2018-07-26T11:09:29.845Z,45.79
2018-07-26T11:10:29.851Z,45.51
2018-07-26T11:11:29.869Z,45.29
2018-07-26T11:12:29.890Z,45.70
2018-07-26T11:13:29.912Z,45.64
2018-07-26T11:14:29.932Z,45.58
2018-07-26T11:15:29.959Z,44.23
2018-07-26T11:16:29.995Z,44.13
2018-07-26T11:17:29.997Z,44.35
2018-07-26T11:18:30.019Z,44.47
2018-07-26T11:19:30.048Z,43.65
2018-07-26T11:20:30.066Z,43.20
2018-07-26T11:21:30.088Z,43.14
2018-07-26T11:22:30.108Z,42.82
2018-07-26T11:23:30.123Z,43.34
2018-07-26T11:24:30.145Z,43.60
2018-07-26T11:25:30.199Z,43.93
2018-07-26T11:26:30.183Z,43.68
2018-07-26T11:27:30.209Z,43.38
2018-07-26T11:28:30.228Z,43.14
2018-07-26T11:29:30.275Z,43.26
2018-07-26T11:30:30.268Z,43.48
2018-07-26T11:31:30.280Z,43.59
2018-07-26T11:32:30.315Z,43.70
2018-07-26T11:33:30.322Z,43.49
2018-07-26T11:34:30.338Z,43.43
2018-07-26T11:35:30.356Z,43.25
2018-07-26T11:36:30.371Z,43.30
2018-07-26T11:37:30.388Z,43.10
2018-07-26T11:38:30.406Z,42.31
2018-07-26T11:39:30.426Z,41.32
2018-07-26T11:40:30.442Z,40.42
2018-07-26T11:41:30.466Z,40.38
2018-07-26T11:42:30.473Z,40.38
2018-07-26T11:43:30.485Z,40.46
2018-07-26T11:44:30.499Z,40.29
2018-07-26T11:45:30.515Z,40.09
2018-07-26T11:46:30.528Z,39.96
2018-07-26T11:47:30.549Z,39.68
2018-07-26T11:48:30.563Z,39.73
2018-07-26T11:49:30.573Z,39.66
2018-07-26T11:50:30.585Z,39.85
2018-07-26T11:51:30.604Z,39.48
2018-07-26T11:52:30.619Z,39.39
2018-07-26T11:53:30.632Z,39.20
2018-07-26T11:54:30.644Z,38.78
2018-07-26T11:55:30.654Z,38.58
2018-07-26T11:56:30.666Z,38.45
2018-07-26T11:57:30.679Z,38.33
2018-07-26T11:58:30.690Z,37.95
2018-07-26T11:59:30.707Z,38.04
2018-07-26T12:00:30.719Z,38.40
2018-07-26T12:01:30.773Z,38.58
2018-07-26T12:02:30.818Z,38.63
2018-07-26T12:03:30.750Z,38.74
2018-07-26T12:04:30.763Z,38.62
2018-07-26T12:05:30.779Z,38.74
2018-07-26T12:06:30.789Z,38.67
2018-07-26T12:07:30.800Z,38.70
2018-07-26T12:08:30.809Z,38.72
2018-07-26T12:09:30.819Z,38.26
2018-07-26T12:10:30.831Z,38.31
2018-07-26T12:11:30.845Z,38.37
2018-07-26T12:12:30.855Z,38.53
2018-07-26T12:13:30.867Z,38.53
2018-07-26T12:14:30.877Z,38.58
2018-07-26T12:15:30.884Z,38.86
2018-07-26T12:16:30.894Z,39.07
2018-07-26T12:17:30.906Z,39.25
2018-07-26T12:18:30.917Z,39.38
2018-07-26T12:19:30.971Z,39.36
2018-07-26T12:20:30.946Z,39.47
2018-07-26T12:21:30.949Z,39.61
2018-07-26T12:22:30.959Z,39.54
2018-07-26T12:23:30.979Z,39.47
2018-07-26T12:24:30.987Z,39.65
2018-07-26T12:25:30.996Z,39.85
2018-07-26T12:26:31.008Z,40.03
2018-07-26T12:27:31.013Z,40.31
2018-07-26T12:28:31.025Z,40.58
2018-07-26T12:29:31.035Z,40.80
2018-07-26T12:30:31.047Z,41.10
2018-07-26T12:31:31.061Z,41.28
2018-07-26T12:32:31.074Z,40.46
2018-07-26T12:33:31.086Z,40.13
2018-07-26T12:34:31.096Z,40.16
2018-07-26T12:35:31.104Z,39.90
2018-07-26T12:36:31.114Z,39.57
2018-07-26T12:37:31.129Z,39.50
2018-07-26T12:38:31.141Z,39.44
2018-07-26T12:39:31.146Z,39.36
2018-07-26T12:40:31.158Z,39.17
2018-07-26T12:41:31.237Z,39.07
2018-07-26T12:42:31.179Z,39.13
2018-07-26T12:43:31.317Z,39.28
2018-07-26T12:44:31.206Z,39.35
2018-07-26T12:45:31.214Z,39.43
2018-07-26T12:46:31.225Z,39.28
2018-07-26T12:47:31.272Z,39.43
2018-07-26T12:48:31.253Z,39.39
2018-07-26T12:49:31.286Z,39.09
2018-07-26T12:50:31.274Z,38.81
2018-07-26T12:51:31.283Z,38.78
2018-07-26T12:52:31.291Z,38.68